Time;durP1;ratioP1;P1;durP2;ratioP2;P2;SDS_P1;SDS_P2;PMS_P1;PMS_P2;Temp;Humidity;BMP_temperature;BMP_pressure;BME280_temperature;BME280_humidity;BME280_pressure;Samples;Min_cycle;Max_cycle;Signal;HPM_P1;HPM_P2
2024/04/14 00:02:01;;;;;;;6.28;4.25;;;;;;;13.04;63.25;95499.84;5456418;26;19990;-72
2024/04/14 00:04:26;;;;;;;7.03;4.25;;;;;;;13.19;64.46;95539.47;5487157;26;20001;-72
2024/04/14 00:06:51;;;;;;;6.57;4.25;;;;;;;13.14;66.14;95533.81;5487804;26;20030;-74
2024/04/14 00:09:17;;;;;;;7.13;4.47;;;;;;;12.92;66.57;95534.72;5488647;26;20385;-74
2024/04/14 00:11:42;;;;;;;4.97;4.00;;;;;;;12.72;66.89;95500.66;5488652;26;19998;-74
2024/04/14 00:14:08;;;;;;;6.13;3.85;;;;;;;12.97;66.78;95530.78;5487118;26;20001;-74
2024/04/14 00:16:33;;;;;;;5.90;4.00;;;;;;;12.95;66.13;95529.25;5486725;26;20451;-74
2024/04/14 00:18:58;;;;;;;8.95;4.00;;;;;;;12.89;65.05;95524.53;5487589;26;20034;-74
2024/04/14 00:21:24;;;;;;;9.32;4.85;;;;;;;12.83;64.83;95528.47;5488511;26;20025;-74
2024/04/14 00:23:50;;;;;;;8.13;4.45;;;;;;;12.76;64.65;95514.28;5487963;26;19998;-73
2024/04/14 00:26:15;;;;;;;8.20;4.95;;;;;;;12.79;63.72;95506.22;5486637;26;20333;-73
2024/04/14 00:28:41;;;;;;;7.80;5.30;;;;;;;12.92;63.94;95519.88;5487673;26;20013;-74
2024/04/14 00:31:06;;;;;;;8.05;4.97;;;;;;;12.87;63.98;95516.84;5488060;26;20042;-74
2024/04/14 00:33:34;;;;;;;6.68;5.57;;;;;;;12.89;64.34;95525.34;5488238;26;20002;-72
2024/04/14 00:36:01;;;;;;;8.60;6.57;;;;;;;12.88;63.82;95512.47;5547315;25;20063;-74
2024/04/14 00:38:26;;;;;;;10.50;5.60;;;;;;;12.86;63.97;95520.41;5487436;26;19998;-75
2024/04/14 00:40:52;;;;;;;7.00;5.95;;;;;;;12.89;63.72;95524.53;5455832;26;20001;-74
2024/04/14 00:43:17;;;;;;;6.72;5.43;;;;;;;12.78;64.26;95506.31;5487990;26;20393;-74
2024/04/14 00:45:42;;;;;;;5.82;5.20;;;;;;;12.80;63.36;95499.22;5548591;25;20087;-74
2024/04/14 00:48:08;;;;;;;5.70;5.10;;;;;;;12.95;63.01;95505.78;5455718;26;19994;-74
2024/04/14 00:50:33;;;;;;;6.25;5.30;;;;;;;13.02;63.29;95503.50;5487356;26;19990;-75
2024/04/14 00:52:59;;;;;;;6.22;5.28;;;;;;;12.92;62.94;95509.47;5486266;26;20456;-76
2024/04/14 00:55:24;;;;;;;6.05;5.13;;;;;;;13.07;63.15;95506.59;5486446;26;20087;-74
2024/04/14 00:57:49;;;;;;;6.88;5.20;;;;;;;13.10;64.11;95508.94;5515672;26;20368;-73
2024/04/14 01:00:15;;;;;;;7.57;5.32;;;;;;;12.78;63.71;95485.47;5516694;26;20026;-74
2024/04/14 01:02:40;;;;;;;7.45;5.35;;;;;;;12.79;64.49;95511.44;5455360;26;20026;-74
2024/04/14 01:05:06;;;;;;;8.70;5.13;;;;;;;12.87;63.12;95485.56;5487635;26;20451;-75
2024/04/14 01:07:32;;;;;;;6.80;5.25;;;;;;;12.75;64.76;95503.00;5547387;25;20018;-75
2024/04/14 01:09:57;;;;;;;9.63;5.28;;;;;;;12.73;64.96;95497.09;5516720;25;20022;-74
2024/04/14 01:12:23;;;;;;;9.95;5.15;;;;;;;12.75;64.44;95507.41;5514605;25;20070;-74
2024/04/14 01:14:50;;;;;;;7.13;4.90;;;;;;;12.47;64.85;95480.94;5486859;26;20000;-74
2024/04/14 01:17:15;;;;;;;6.00;5.28;;;;;;;12.69;65.15;95503.50;5485531;26;20010;-74
2024/04/14 01:19:41;;;;;;;6.90;4.65;;;;;;;12.68;64.92;95506.25;5487157;26;19990;-74
2024/04/14 01:22:06;;;;;;;6.60;5.70;;;;;;;12.53;65.09;95505.66;5514014;26;19991;-74
2024/04/14 01:24:32;;;;;;;7.63;5.38;;;;;;;12.52;65.99;95506.63;5517379;26;20001;-74
2024/04/14 01:26:57;;;;;;;6.72;5.10;;;;;;;12.39;65.74;95505.94;5490778;26;20001;-74
2024/04/14 01:29:23;;;;;;;6.82;5.40;;;;;;;12.46;65.11;95502.75;5489503;26;20018;-74
2024/04/14 01:31:48;;;;;;;8.20;5.40;;;;;;;12.44;65.92;95507.25;5488922;26;20325;-74
2024/04/14 01:34:17;;;;;;;6.22;5.32;;;;;;;12.27;66.38;95500.75;5458633;26;20397;-74
2024/04/14 01:36:43;;;;;;;7.18;5.68;;;;;;;12.34;66.01;95502.88;5519626;26;19994;-74
2024/04/14 01:39:08;;;;;;;7.82;5.50;;;;;;;12.41;66.66;95509.25;5489746;26;19994;-74
2024/04/14 01:41:33;;;;;;;6.53;4.97;;;;;;;12.43;65.23;95516.00;5550218;25;20030;-74
2024/04/14 01:43:59;;;;;;;6.97;5.53;;;;;;;12.20;66.00;95497.00;5488762;26;19998;-74
2024/04/14 01:46:24;;;;;;;7.05;5.53;;;;;;;12.38;66.04;95522.53;5489231;26;20567;-74
2024/04/14 01:48:49;;;;;;;7.35;5.90;;;;;;;12.36;66.24;95525.25;5550935;25;20009;-73
2024/04/14 01:51:15;;;;;;;10.00;6.35;;;;;;;12.26;65.98;95524.34;5490768;26;20071;-72
2024/04/14 01:53:40;;;;;;;7.78;5.85;;;;;;;12.13;68.27;95529.66;5519982;26;20038;-74
2024/04/14 01:56:06;;;;;;;6.35;5.28;;;;;;;12.26;67.22;95524.34;5489091;26;20046;-74
2024/04/14 01:58:31;;;;;;;5.72;5.13;;;;;;;12.25;67.40;95526.09;5519738;26;20441;-74
2024/04/14 02:00:57;;;;;;;8.07;5.30;;;;;;;12.13;67.17;95521.03;5490163;26;20325;-74
2024/04/14 02:03:22;;;;;;;7.35;5.20;;;;;;;12.12;67.97;95524.56;5488115;26;20347;-74
2024/04/14 02:05:57;;;;;;;7.20;5.35;;;;;;;12.00;67.75;95518.53;5519446;26;20516;-74
2024/04/14 02:08:23;;;;;;;6.63;5.13;;;;;;;11.79;68.27;95521.81;5488430;26;20038;-74
2024/04/14 02:10:48;;;;;;;8.63;5.65;;;;;;;11.75;68.94;95522.16;5488541;26;20038;-74
2024/04/14 02:13:13;;;;;;;6.85;5.15;;;;;;;11.51;68.79;95493.63;5519036;26;20010;-74
2024/04/14 02:15:39;;;;;;;5.93;5.05;;;;;;;11.63;68.46;95519.53;5519441;26;20309;-73
2024/04/14 02:18:05;;;;;;;9.35;5.18;;;;;;;11.37;69.99;95529.31;5488309;26;20280;-73
2024/04/14 02:20:30;;;;;;;7.88;4.82;;;;;;;11.34;69.08;95519.16;5550346;25;20001;-74
2024/04/14 02:22:56;;;;;;;7.25;5.05;;;;;;;11.15;69.89;95524.88;5490448;26;19995;-81
2024/04/14 02:25:21;;;;;;;7.28;4.68;;;;;;;11.12;70.01;95522.50;5550547;25;20404;-74
2024/04/14 02:27:47;;;;;;;6.55;5.25;;;;;;;11.05;70.14;95528.25;5549776;25;20025;-74
2024/04/14 02:30:12;;;;;;;5.60;4.70;;;;;;;11.03;71.08;95533.59;5550155;25;20351;-74
2024/04/14 02:32:39;;;;;;;7.05;4.80;;;;;;;10.94;71.11;95521.25;5490142;26;20030;-74
2024/04/14 02:35:06;;;;;;;6.32;5.18;;;;;;;10.72;72.06;95528.00;5549568;25;20016;-73
2024/04/14 02:37:32;;;;;;;8.90;5.00;;;;;;;10.86;71.78;95533.97;5548037;25;20012;-74
2024/04/14 02:39:57;;;;;;;5.50;4.55;;;;;;;10.99;71.25;95528.72;5550397;25;20454;-74
2024/04/14 02:42:23;;;;;;;6.72;4.95;;;;;;;10.64;72.18;95530.34;5518840;26;20022;-74
2024/04/14 02:44:48;;;;;;;6.97;4.78;;;;;;;10.81;72.13;95525.66;5490032;26;20001;-74
2024/04/14 02:47:14;;;;;;;6.95;5.47;;;;;;;10.69;72.29;95517.00;5489792;26;19994;-74
2024/04/14 02:49:39;;;;;;;6.78;5.22;;;;;;;10.82;71.29;95512.56;5550483;25;20002;-74
2024/04/14 02:52:06;;;;;;;7.43;6.00;;;;;;;10.52;72.36;95520.81;5488005;26;20066;-74
2024/04/14 02:54:31;;;;;;;7.70;5.13;;;;;;;10.33;72.69;95502.28;5489191;26;20005;-74
2024/04/14 02:56:57;;;;;;;6.88;5.30;;;;;;;10.50;72.79;95507.09;5487803;26;20063;-74
2024/04/14 02:59:22;;;;;;;9.18;5.60;;;;;;;10.44;73.37;95507.53;5518541;25;20348;-73
2024/04/14 03:01:47;;;;;;;9.68;6.57;;;;;;;10.33;72.99;95510.06;5488033;26;19995;-74
2024/04/14 03:04:13;;;;;;;35.97;16.55;;;;;;;10.17;73.87;95524.09;5489346;26;19998;-74
2024/04/14 03:06:38;;;;;;;11.52;6.40;;;;;;;10.21;73.65;95528.13;5489527;26;19998;-74
2024/04/14 03:09:04;;;;;;;11.75;5.40;;;;;;;10.28;74.37;95526.81;5488383;26;20356;-75
2024/04/14 03:11:30;;;;;;;10.40;6.47;;;;;;;10.14;74.89;95516.53;5549114;25;20037;-77
2024/04/14 03:13:55;;;;;;;11.98;6.82;;;;;;;10.22;74.09;95527.22;5487473;26;20016;-75
2024/04/14 03:16:20;;;;;;;10.02;6.53;;;;;;;10.05;75.44;95532.72;5487535;26;20432;-76
2024/04/14 03:18:47;;;;;;;9.10;6.75;;;;;;;10.11;75.59;95534.06;5517734;26;20006;-75
2024/04/14 03:21:12;;;;;;;7.07;6.35;;;;;;;9.89;76.31;95534.72;5489840;26;19998;-74
2024/04/14 03:23:39;;;;;;;7.97;5.78;;;;;;;10.12;75.46;95533.97;5487609;26;20016;-73
2024/04/14 03:26:05;;;;;;;6.70;6.00;;;;;;;9.94;75.68;95535.25;5489211;26;20005;-74
2024/04/14 03:28:30;;;;;;;7.47;5.90;;;;;;;9.81;76.17;95523.13;5518157;26;19990;-74
2024/04/14 03:30:59;;;;;;;7.47;5.65;;;;;;;9.80;76.54;95531.81;5487170;26;20026;-74
2024/04/14 03:33:25;;;;;;;8.20;5.90;;;;;;;9.87;76.03;95534.84;5455063;26;19994;-74
2024/04/14 03:36:09;;;;;;;6.72;6.05;;;;;;;10.00;75.34;95524.44;5456373;26;20004;-75
2024/04/14 03:38:34;;;;;;;7.75;5.97;;;;;;;9.92;75.68;95532.75;5487374;26;20065;-75
2024/04/14 03:41:00;;;;;;;8.50;5.63;;;;;;;10.00;75.53;95532.22;5427273;26;20001;-75
2024/04/14 03:43:26;;;;;;;7.95;5.93;;;;;;;9.95;75.05;95529.97;5487709;26;20302;-75
2024/04/14 03:45:51;;;;;;;9.77;5.70;;;;;;;10.06;75.46;95539.59;5457204;26;20000;-75
2024/04/14 03:48:16;;;;;;;8.40;6.03;;;;;;;10.04;75.32;95537.09;5489109;26;20389;-75
2024/04/14 03:50:45;;;;;;;7.10;5.65;;;;;;;10.05;75.57;95543.13;5488324;26;19994;-75
2024/04/14 03:53:11;;;;;;;9.65;6.15;;;;;;;10.18;74.70;95546.53;5487388;26;19997;-75
2024/04/14 03:55:36;;;;;;;7.88;5.40;;;;;;;10.21;75.13;95548.91;5489231;26;19998;-75
2024/04/14 03:58:02;;;;;;;8.25;5.53;;;;;;;10.16;75.59;95542.38;5548785;25;20421;-75
2024/04/14 04:00:27;;;;;;;8.98;5.95;;;;;;;10.14;75.35;95539.91;5486485;26;19994;-75
2024/04/14 04:02:52;;;;;;;7.35;5.80;;;;;;;10.27;74.20;95537.28;5517117;26;19998;-75
2024/04/14 04:05:18;;;;;;;7.60;5.95;;;;;;;10.39;73.64;95535.59;5487855;26;19994;-75
2024/04/14 04:07:47;;;;;;;6.47;5.55;;;;;;;10.28;74.63;95539.78;5488764;26;19994;-75
2024/04/14 04:10:12;;;;;;;5.82;5.22;;;;;;;9.85;74.77;95441.50;5456477;26;20005;-75
2024/04/14 04:12:38;;;;;;;7.38;5.75;;;;;;;10.46;73.50;95547.22;5548607;25;19990;-76
2024/04/14 04:15:03;;;;;;;7.00;5.88;;;;;;;10.55;73.05;95537.94;5511677;26;20023;-76
2024/04/14 04:17:29;;;;;;;6.05;5.38;;;;;;;10.57;72.99;95538.66;5420438;26;20457;-76
2024/04/14 04:19:54;;;;;;;8.13;5.53;;;;;;;10.54;73.27;95537.13;5450775;26;20031;-76
2024/04/14 04:22:19;;;;;;;7.45;5.80;;;;;;;10.57;73.06;95536.06;5486425;26;20350;-75
2024/04/14 04:24:45;;;;;;;6.38;5.50;;;;;;;10.57;72.03;95529.09;5488587;26;19990;-75
2024/04/14 04:27:10;;;;;;;7.40;5.70;;;;;;;10.72;71.67;95543.56;5488147;26;20023;-74
2024/04/14 04:29:36;;;;;;;7.63;5.93;;;;;;;10.83;71.84;95549.78;5547668;25;20464;-74
2024/04/14 04:32:01;;;;;;;7.15;5.43;;;;;;;10.87;71.39;95549.47;5486294;26;20002;-73
2024/04/14 04:34:27;;;;;;;9.02;5.15;;;;;;;10.98;70.87;95564.28;5486611;26;19990;-74
2024/04/14 04:36:52;;;;;;;7.97;5.05;;;;;;;11.07;70.44;95563.59;5513181;26;19998;-74
2024/04/14 04:39:17;;;;;;;7.50;5.05;;;;;;;11.17;70.22;95561.16;5482177;26;20029;-75
2024/04/14 04:41:43;;;;;;;7.07;5.60;;;;;;;11.31;70.52;95554.94;5484456;26;20002;-75
2024/04/14 04:44:09;;;;;;;5.18;4.68;;;;;;;11.39;70.38;95555.19;5484842;26;20328;-75
2024/04/14 04:46:35;;;;;;;7.13;5.63;;;;;;;11.59;69.45;95558.94;5453442;26;20449;-74
2024/04/14 04:49:00;;;;;;;8.35;6.45;;;;;;;11.81;69.65;95563.31;5487079;26;20280;-75
2024/04/14 04:51:27;;;;;;;8.73;5.75;;;;;;;12.06;68.37;95554.50;5455123;26;20115;-74
2024/04/14 04:53:52;;;;;;;7.47;6.30;;;;;;;12.18;69.11;95552.75;5486127;26;20009;-74
2024/04/14 04:56:18;;;;;;;7.63;6.32;;;;;;;12.25;68.97;95561.72;5487683;26;20002;-75
2024/04/14 04:58:43;;;;;;;9.38;5.72;;;;;;;12.42;67.42;95565.63;5486259;26;20038;-74
2024/04/14 05:01:09;;;;;;;7.93;6.40;;;;;;;12.60;68.05;95568.59;5488954;26;20002;-73
2024/04/14 05:03:34;;;;;;;8.70;6.88;;;;;;;12.78;67.42;95574.09;5487495;26;19994;-74
2024/04/14 05:06:00;;;;;;;11.10;7.05;;;;;;;13.06;67.55;95570.94;5520468;26;20004;-73
2024/04/14 05:08:26;;;;;;;6.88;5.40;;;;;;;13.18;64.74;95577.78;5491560;26;19998;-73
2024/04/14 05:10:54;;;;;;;7.25;5.82;;;;;;;13.08;65.17;95568.22;5519043;25;20516;-75
2024/04/14 05:13:20;;;;;;;7.43;6.05;;;;;;;13.15;64.70;95579.81;5551192;25;19998;-75
2024/04/14 05:15:46;;;;;;;9.02;6.55;;;;;;;13.43;65.56;95588.88;5488706;26;20398;-75
2024/04/14 05:18:11;;;;;;;7.70;6.70;;;;;;;13.57;65.88;95587.75;5489697;26;20070;-75
2024/04/14 05:20:37;;;;;;;11.65;8.13;;;;;;;13.72;64.21;95578.63;5489534;26;20030;-76
2024/04/14 05:23:03;;;;;;;9.30;7.90;;;;;;;13.91;63.13;95574.47;5479690;26;19994;-76
2024/04/14 05:25:28;;;;;;;9.07;7.13;;;;;;;14.16;63.01;95581.91;5488947;26;20435;-74
2024/04/14 05:27:54;;;;;;;10.88;6.97;;;;;;;14.29;62.20;95585.13;5488938;26;20066;-76
2024/04/14 05:30:19;;;;;;;10.10;6.78;;;;;;;14.37;62.85;95586.25;5488433;26;20352;-76
2024/04/14 05:32:45;;;;;;;10.80;6.72;;;;;;;14.72;60.78;95581.44;5484508;26;20979;-75
2024/04/14 05:35:12;;;;;;;9.82;6.60;;;;;;;14.70;61.99;95580.75;5488889;26;20452;-74
2024/04/14 05:37:37;;;;;;;9.90;7.15;;;;;;;15.11;59.80;95585.94;5479511;26;20002;-76
2024/04/14 05:40:03;;;;;;;10.75;6.40;;;;;;;15.15;60.21;95582.88;5489013;26;20000;-76
2024/04/14 05:42:28;;;;;;;8.77;6.65;;;;;;;15.31;59.63;95586.75;5487872;26;20018;-75
2024/04/14 05:44:54;;;;;;;7.03;6.32;;;;;;;15.56;60.59;95583.59;5488170;26;20022;-75
2024/04/14 05:47:20;;;;;;;7.78;6.40;;;;;;;15.66;60.46;95586.22;5485883;26;20006;-73
2024/04/14 05:49:45;;;;;;;8.15;6.30;;;;;;;15.21;59.28;95578.94;5477467;26;20014;-72
2024/04/14 05:52:11;;;;;;;9.60;7.10;;;;;;;15.60;58.44;95574.50;5451246;26;20451;-73
2024/04/14 05:54:36;;;;;;;7.57;6.72;;;;;;;15.94;58.61;95570.63;5454797;26;20394;-72
2024/04/14 05:57:02;;;;;;;10.02;7.05;;;;;;;15.73;57.75;95557.69;5475307;26;20006;-75
2024/04/14 05:59:27;;;;;;;9.27;7.10;;;;;;;15.75;58.35;95581.97;5449213;26;20008;-74
2024/04/14 06:01:53;;;;;;;10.05;6.47;;;;;;;16.19;58.04;95562.13;5485612;26;20006;-73
2024/04/14 06:04:18;;;;;;;9.38;7.05;;;;;;;15.97;56.96;95580.81;5480682;26;20454;-75
2024/04/14 06:06:44;;;;;;;12.57;7.93;;;;;;;15.70;58.27;95581.53;5501183;25;20496;-72
2024/04/14 06:09:10;;;;;;;11.27;8.50;;;;;;;15.39;58.79;95547.63;5482078;26;20449;-75
2024/04/14 06:11:36;;;;;;;10.38;7.93;;;;;;;15.93;58.02;95582.88;5486644;26;20013;-72
2024/04/14 06:14:01;;;;;;;12.43;7.88;;;;;;;16.58;56.09;95579.50;5482578;26;19994;-73
2024/04/14 06:16:27;;;;;;;10.80;7.13;;;;;;;16.75;55.72;95578.72;5485955;26;20365;-72
2024/04/14 06:18:52;;;;;;;7.85;6.65;;;;;;;16.23;56.63;95567.91;5479508;26;20014;-71
2024/04/14 06:21:17;;;;;;;8.80;6.85;;;;;;;16.89;54.89;95573.00;5484762;26;19996;-70
2024/04/14 06:23:43;;;;;;;8.38;6.93;;;;;;;17.03;54.86;95571.69;5441649;26;20006;-72
2024/04/14 06:26:08;;;;;;;9.05;6.85;;;;;;;17.24;55.02;95579.25;5498087;25;20027;-71
2024/04/14 06:28:34;;;;;;;10.38;6.10;;;;;;;17.40;53.83;95583.84;5471152;26;20006;-70
2024/04/14 06:30:59;;;;;;;7.30;6.55;;;;;;;17.37;54.77;95586.78;5479771;26;20003;-70
2024/04/14 06:33:25;;;;;;;7.85;6.60;;;;;;;17.55;53.78;95582.34;5478529;26;20429;-73
2024/04/14 06:35:54;;;;;;;7.93;6.28;;;;;;;17.67;53.01;95580.31;5480551;26;20005;-66
2024/04/14 06:38:20;;;;;;;10.82;6.90;;;;;;;17.04;53.85;95570.69;5485172;26;20022;-67
2024/04/14 06:40:46;;;;;;;8.65;6.25;;;;;;;16.81;54.75;95582.59;5509104;26;20027;-67
2024/04/14 06:43:12;;;;;;;10.20;5.57;;;;;;;16.75;53.73;95576.91;5421223;26;19999;-67
2024/04/14 06:45:38;;;;;;;9.57;6.20;;;;;;;16.68;54.45;95554.84;5482053;26;20424;-68
2024/04/14 06:48:04;;;;;;;8.98;6.47;;;;;;;16.80;54.46;95567.81;5446656;26;20005;-67
2024/04/14 06:50:30;;;;;;;8.38;5.03;;;;;;;16.83;51.85;95578.03;5485576;26;19991;-69
2024/04/14 06:52:55;;;;;;;8.57;5.55;;;;;;;16.90;52.80;95571.19;5486013;26;20413;-69
2024/04/14 06:55:20;;;;;;;9.52;5.28;;;;;;;17.09;52.79;95578.13;5483948;26;20042;-69
2024/04/14 06:57:46;;;;;;;6.38;5.07;;;;;;;16.80;51.81;95528.44;5486379;26;19998;-68
2024/04/14 07:00:12;;;;;;;7.32;4.85;;;;;;;17.97;48.79;95570.34;5485102;26;20014;-69
2024/04/14 07:02:37;;;;;;;8.77;5.30;;;;;;;18.14;49.95;95568.69;5456401;26;20437;-67
2024/04/14 07:05:03;;;;;;;9.10;5.45;;;;;;;17.51;50.25;95567.03;5476309;26;20020;-73
2024/04/14 07:07:28;;;;;;;6.85;4.60;;;;;;;18.09;50.25;95569.13;5477940;26;19999;-71
2024/04/14 07:09:54;;;;;;;5.82;4.97;;;;;;;18.43;49.39;95573.59;5470482;26;19999;-71
2024/04/14 07:12:19;;;;;;;9.02;5.68;;;;;;;18.11;49.88;95558.44;5454332;26;20074;-67
2024/04/14 07:14:45;;;;;;;6.43;4.97;;;;;;;18.70;47.90;95556.78;5486364;26;20030;-68
2024/04/14 07:17:10;;;;;;;8.63;5.63;;;;;;;18.45;48.23;95558.50;5486549;26;20034;-68
2024/04/14 07:19:35;;;;;;;8.57;5.57;;;;;;;18.23;48.91;95555.41;5545581;25;20088;-69
2024/04/14 07:22:01;;;;;;;9.20;5.75;;;;;;;18.48;48.00;95568.69;5477421;26;20005;-69
2024/04/14 07:24:26;;;;;;;5.72;4.75;;;;;;;18.98;46.74;95566.09;5486909;26;20014;-72
2024/04/14 07:26:52;;;;;;;8.38;5.32;;;;;;;18.34;48.73;95561.41;5447628;26;20030;-69
2024/04/14 07:29:17;;;;;;;6.80;4.93;;;;;;;18.41;47.91;95562.41;5486477;26;20027;-71
2024/04/14 07:31:42;;;;;;;7.97;5.00;;;;;;;19.14;45.77;95569.78;5486808;26;20006;-72
2024/04/14 07:34:08;;;;;;;7.43;4.70;;;;;;;19.42;45.09;95562.41;5487318;26;20016;-74
2024/04/14 07:36:33;;;;;;;7.03;4.88;;;;;;;19.54;44.89;95550.53;5546345;25;20030;-73
2024/04/14 07:38:59;;;;;;;7.20;5.03;;;;;;;19.70;45.33;95548.94;5488368;26;19998;-72
2024/04/14 07:41:24;;;;;;;7.53;6.05;;;;;;;19.38;45.97;95550.53;5487720;26;20006;-69
2024/04/14 07:43:51;;;;;;;8.77;5.03;;;;;;;19.25;45.92;95550.19;5452215;26;19997;-69
2024/04/14 07:46:17;;;;;;;9.30;5.55;;;;;;;19.53;44.85;95538.38;5417255;26;19994;-71
2024/04/14 07:48:42;;;;;;;8.55;5.00;;;;;;;19.24;45.27;95556.44;5449574;26;20031;-70
2024/04/14 07:51:08;;;;;;;10.02;4.93;;;;;;;19.38;45.06;95532.09;5479000;26;20550;-69
2024/04/14 07:53:33;;;;;;;7.10;5.05;;;;;;;20.26;44.42;95547.22;5487620;26;19997;-69
2024/04/14 07:55:59;;;;;;;9.75;5.65;;;;;;;20.22;44.03;95527.41;5486774;26;20013;-70
2024/04/14 07:58:24;;;;;;;8.93;5.97;;;;;;;19.75;44.51;95542.19;5488426;26;20340;-70
2024/04/14 08:00:50;;;;;;;11.38;5.80;;;;;;;19.85;44.52;95550.72;5474733;26;19995;-71
2024/04/14 08:03:16;;;;;;;8.38;5.65;;;;;;;20.59;43.08;95549.75;5482020;26;20008;-71
2024/04/14 08:05:42;;;;;;;8.10;5.55;;;;;;;20.43;42.64;95534.78;5485244;26;20006;-72
2024/04/14 08:08:10;;;;;;;10.55;5.93;;;;;;;20.42;43.11;95554.22;5477114;26;20070;-70
2024/04/14 08:10:35;;;;;;;6.78;5.30;;;;;;;19.63;44.29;95552.19;5483261;26;19998;-68
2024/04/14 08:13:01;;;;;;;6.95;5.78;;;;;;;20.04;45.07;95539.00;5485837;26;19995;-70
2024/04/14 08:15:26;;;;;;;7.72;5.60;;;;;;;20.23;43.56;95539.63;5483406;26;20474;-70
2024/04/14 08:17:52;;;;;;;8.68;5.18;;;;;;;20.35;43.25;95543.53;5453080;26;20047;-70
2024/04/14 08:20:17;;;;;;;9.07;5.22;;;;;;;20.88;41.63;95539.41;5447924;26;20333;-73
2024/04/14 08:22:43;;;;;;;7.47;5.03;;;;;;;20.90;41.73;95541.88;5460440;26;20042;-72
2024/04/14 08:25:08;;;;;;;7.82;5.10;;;;;;;20.72;42.16;95536.84;5485662;26;20332;-71
2024/04/14 08:27:33;;;;;;;6.95;4.93;;;;;;;20.69;41.10;95548.56;5481110;26;20430;-72
2024/04/14 08:29:59;;;;;;;11.30;4.95;;;;;;;20.33;42.16;95545.53;5485987;26;19998;-71
2024/04/14 08:32:24;;;;;;;7.60;5.28;;;;;;;20.91;40.69;95546.16;5485756;26;20432;-72
2024/04/14 08:34:50;;;;;;;8.20;4.88;;;;;;;20.29;42.48;95541.59;5487666;26;19994;-71
2024/04/14 08:37:15;;;;;;;8.88;5.53;;;;;;;20.57;41.34;95543.84;5490257;26;20018;-70
2024/04/14 08:39:40;;;;;;;6.80;4.90;;;;;;;20.35;42.74;95525.06;5490606;26;19994;-72
2024/04/14 08:42:06;;;;;;;7.38;4.25;;;;;;;20.49;42.41;95526.19;5490029;26;20510;-71
2024/04/14 08:44:32;;;;;;;8.57;4.97;;;;;;;20.65;41.79;95507.66;5519997;26;20078;-72
2024/04/14 08:46:58;;;;;;;8.23;5.15;;;;;;;20.95;41.06;95532.44;5489370;26;20009;-71
2024/04/14 08:49:23;;;;;;;6.97;4.80;;;;;;;21.23;40.39;95529.28;5519485;26;19994;-71
2024/04/14 08:51:49;;;;;;;7.05;5.28;;;;;;;21.20;40.64;95534.91;5519838;26;20038;-71
2024/04/14 08:54:14;;;;;;;8.25;5.05;;;;;;;20.75;41.60;95528.56;5518135;25;19994;-71
2024/04/14 08:56:40;;;;;;;9.32;4.95;;;;;;;20.83;41.56;95531.16;5517137;26;19993;-71
2024/04/14 08:59:06;;;;;;;7.72;4.85;;;;;;;20.71;41.48;95525.44;5430078;26;20023;-71
2024/04/14 09:01:31;;;;;;;7.75;4.43;;;;;;;20.86;40.52;95528.19;5453203;26;20335;-71
2024/04/14 09:03:56;;;;;;;5.32;3.90;;;;;;;21.59;38.78;95520.78;5429150;26;19990;-71
2024/04/14 09:06:22;;;;;;;6.78;4.45;;;;;;;21.40;39.66;95507.06;5487137;26;20042;-71
2024/04/14 09:08:47;;;;;;;7.25;4.38;;;;;;;21.04;40.87;95520.00;5486708;26;19990;-71
2024/04/14 09:11:13;;;;;;;6.70;4.63;;;;;;;21.35;38.62;95527.06;5484143;26;20448;-71
2024/04/14 09:13:38;;;;;;;7.03;4.20;;;;;;;21.73;38.30;95517.38;5485645;26;19990;-71
2024/04/14 09:16:04;;;;;;;7.95;4.63;;;;;;;21.49;39.28;95520.22;5418975;26;20051;-71
2024/04/14 09:18:29;;;;;;;6.70;4.15;;;;;;;21.60;39.55;95515.31;5449640;26;20023;-72
2024/04/14 09:20:55;;;;;;;6.47;4.15;;;;;;;21.51;39.27;95512.94;5481655;26;20027;-71
2024/04/14 09:23:22;;;;;;;5.53;4.38;;;;;;;21.51;38.81;95510.28;5487466;26;20380;-71
2024/04/14 09:25:47;;;;;;;8.80;3.78;;;;;;;21.48;39.31;95503.53;5489160;26;20320;-71
2024/04/14 09:28:14;;;;;;;7.53;4.15;;;;;;;21.72;39.09;95499.03;5491681;26;19986;-71
2024/04/14 09:30:39;;;;;;;5.65;3.70;;;;;;;21.63;38.02;95488.53;5489519;26;20009;-71
2024/04/14 09:33:05;;;;;;;5.55;3.85;;;;;;;22.07;38.04;95492.25;5459301;26;20423;-71
2024/04/14 09:35:30;;;;;;;6.18;3.90;;;;;;;21.95;37.88;95498.97;5490651;26;19998;-71
2024/04/14 09:37:56;;;;;;;6.78;4.25;;;;;;;21.47;37.79;95509.00;5428653;26;19987;-71
2024/04/14 09:40:22;;;;;;;9.93;4.10;;;;;;;21.45;38.73;95495.94;5488773;26;20038;-71
2024/04/14 09:42:48;;;;;;;6.32;3.83;;;;;;;22.00;37.65;95486.03;5458954;26;19990;-71
2024/04/14 09:45:13;;;;;;;6.80;3.88;;;;;;;21.88;37.89;95479.56;5451867;26;19995;-71
2024/04/14 09:47:39;;;;;;;7.82;3.78;;;;;;;21.80;36.85;95467.22;5422494;26;20031;-71
2024/04/14 09:50:05;;;;;;;5.40;3.42;;;;;;;21.53;36.74;95482.66;5424106;26;20018;-71
2024/04/14 09:52:31;;;;;;;8.38;3.90;;;;;;;21.60;36.35;95466.94;5458341;26;19990;-71
2024/04/14 09:54:56;;;;;;;6.20;3.90;;;;;;;22.09;35.34;95463.75;5458920;26;20018;-71
2024/04/14 09:57:22;;;;;;;6.03;3.58;;;;;;;22.17;35.83;95476.09;5488840;26;20043;-71
2024/04/14 09:59:47;;;;;;;5.20;3.80;;;;;;;22.26;35.92;95475.03;5458791;26;19998;-71
2024/04/14 10:02:16;;;;;;;5.97;3.28;;;;;;;22.16;36.33;95469.97;5490247;26;20456;-71
2024/04/14 10:04:42;;;;;;;9.15;4.40;;;;;;;22.41;35.47;95475.03;5488633;26;20022;-71
2024/04/14 10:07:08;;;;;;;5.35;4.00;;;;;;;22.16;37.20;95454.09;5451901;26;19995;-71
2024/04/14 10:09:34;;;;;;;5.10;3.78;;;;;;;21.90;36.81;95466.94;5422576;26;20001;-71
2024/04/14 10:12:00;;;;;;;10.00;3.70;;;;;;;21.77;36.52;95457.00;5473646;26;20074;-72
2024/04/14 10:14:27;;;;;;;6.80;3.55;;;;;;;22.18;35.49;95462.72;5488849;26;20054;-71
2024/04/14 10:16:59;;;;;;;6.18;3.88;;;;;;;22.27;35.05;95451.03;5490094;26;19991;-72
2024/04/14 10:19:24;;;;;;;6.05;3.10;;;;;;;22.29;34.55;95446.38;5488512;26;20504;-72
2024/04/14 10:22:06;;;;;;;6.47;3.38;;;;;;;22.41;34.49;95445.91;5488159;26;20002;-71
2024/04/14 10:24:32;;;;;;;7.50;3.80;;;;;;;22.72;34.40;95448.31;5488798;26;19990;-72
2024/04/14 10:27:07;;;;;;;9.35;3.65;;;;;;;22.37;35.75;95441.97;5488475;26;20464;-72
2024/04/14 10:29:32;;;;;;;7.53;3.22;;;;;;;22.29;34.65;95440.28;5488671;26;20467;-71
2024/04/14 10:31:58;;;;;;;4.95;3.33;;;;;;;22.72;34.85;95421.81;5489967;26;19994;-71
2024/04/14 10:34:23;;;;;;;11.52;3.50;;;;;;;22.90;34.11;95430.19;5458096;26;20088;-72
2024/04/14 10:36:56;;;;;;;5.78;3.60;;;;;;;22.96;34.02;95418.03;5490194;26;19990;-72
2024/04/14 10:39:21;;;;;;;6.65;3.83;;;;;;;22.79;34.35;95422.72;5488572;26;19998;-72
2024/04/14 10:41:47;;;;;;;9.02;3.70;;;;;;;22.44;33.87;95416.41;5488300;26;20067;-71
2024/04/14 10:44:16;;;;;;;6.70;3.38;;;;;;;22.58;33.92;95412.91;5488768;26;20425;-71
2024/04/14 10:46:42;;;;;;;4.70;3.70;;;;;;;22.57;33.88;95400.69;5488306;26;20006;-72
2024/04/14 10:49:08;;;;;;;4.63;3.10;;;;;;;22.44;34.01;95369.59;5489914;26;19998;-71
2024/04/14 10:51:35;;;;;;;4.82;2.90;;;;;;;22.83;31.61;95402.78;5488159;26;19994;-71
2024/04/14 10:54:01;;;;;;;6.22;3.05;;;;;;;22.77;30.50;95397.44;5486336;26;20077;-71
2024/04/14 10:56:27;;;;;;;6.40;2.90;;;;;;;22.74;30.65;95403.94;5456803;26;20329;-72
2024/04/14 10:58:52;;;;;;;4.45;3.00;;;;;;;23.05;30.82;95398.34;5486311;26;20018;-72
2024/04/14 11:01:17;;;;;;;6.85;3.22;;;;;;;23.09;31.33;95393.47;5488522;26;20381;-71
2024/04/14 11:03:43;;;;;;;6.40;3.20;;;;;;;22.83;31.02;95394.03;5478572;26;20074;-76
2024/04/14 11:06:08;;;;;;;4.93;3.38;;;;;;;22.58;31.71;95389.09;5486804;26;19998;-69
2024/04/14 11:08:34;;;;;;;5.50;2.88;;;;;;;22.56;31.55;95385.78;5456899;26;19994;-69
2024/04/14 11:10:59;;;;;;;5.63;3.20;;;;;;;22.84;32.43;95362.03;5481346;26;20015;-74
2024/04/14 11:13:25;;;;;;;4.57;3.08;;;;;;;23.06;31.92;95378.78;5481611;26;20014;-67
2024/04/14 11:15:55;;;;;;;5.00;3.70;;;;;;;22.85;31.68;95384.06;5456266;26;19998;-66
2024/04/14 11:18:24;;;;;;;8.80;3.75;;;;;;;22.79;32.52;95383.00;5487410;26;20006;-68
2024/04/14 11:20:50;;;;;;;4.90;3.00;;;;;;;22.91;32.55;95373.53;5447143;26;20445;-68
2024/04/14 11:23:15;;;;;;;5.90;3.13;;;;;;;22.87;31.18;95374.09;5479089;26;19994;-68
2024/04/14 11:25:40;;;;;;;3.80;2.90;;;;;;;22.93;30.11;95363.56;5488337;26;20016;-67